sensor_id;sensor_type;location;lat;lon;timestamp;P1;durP1;ratioP1;P2;durP2;ratioP2
42754;SDS011;28407;51.830;5.684;2023-04-25T00:00:00;4.43;;;2.50;;
42754;SDS011;28407;51.830;5.684;2023-04-25T00:02:01;6.18;;;2.50;;
42754;SDS011;28407;51.830;5.684;2023-04-25T00:04:03;4.63;;;2.67;;
42754;SDS011;28407;51.830;5.684;2023-04-25T00:06:06;3.65;;;2.55;;
42754;SDS011;28407;51.830;5.684;2023-04-25T00:08:06;2.83;;;2.55;;
42754;SDS011;28407;51.830;5.684;2023-04-25T00:10:07;3.55;;;2.50;;
42754;SDS011;28407;51.830;5.684;2023-04-25T00:12:08;4.47;;;3.33;;
42754;SDS011;28407;51.830;5.684;2023-04-25T00:14:09;2.83;;;2.45;;
42754;SDS011;28407;51.830;5.684;2023-04-25T00:16:10;3.08;;;2.60;;
42754;SDS011;28407;51.830;5.684;2023-04-25T00:18:10;5.40;;;2.90;;
42754;SDS011;28407;51.830;5.684;2023-04-25T00:20:11;4.47;;;2.60;;
42754;SDS011;28407;51.830;5.684;2023-04-25T00:22:12;3.38;;;2.63;;
42754;SDS011;28407;51.830;5.684;2023-04-25T00:24:13;5.15;;;2.70;;
42754;SDS011;28407;51.830;5.684;2023-04-25T00:26:13;4.18;;;2.88;;
42754;SDS011;28407;51.830;5.684;2023-04-25T00:28:14;2.92;;;2.30;;
42754;SDS011;28407;51.830;5.684;2023-04-25T00:30:15;4.55;;;2.72;;
42754;SDS011;28407;51.830;5.684;2023-04-25T00:32:16;3.88;;;2.58;;
42754;SDS011;28407;51.830;5.684;2023-04-25T00:34:17;3.35;;;2.50;;
42754;SDS011;28407;51.830;5.684;2023-04-25T00:36:17;3.38;;;3.08;;
42754;SDS011;28407;51.830;5.684;2023-04-25T00:38:18;3.45;;;2.53;;
42754;SDS011;28407;51.830;5.684;2023-04-25T00:40:19;4.60;;;2.97;;
42754;SDS011;28407;51.830;5.684;2023-04-25T00:42:20;3.38;;;2.60;;
42754;SDS011;28407;51.830;5.684;2023-04-25T00:44:21;3.90;;;2.75;;
42754;SDS011;28407;51.830;5.684;2023-04-25T00:46:22;4.55;;;3.22;;
42754;SDS011;28407;51.830;5.684;2023-04-25T00:48:22;3.03;;;2.70;;
42754;SDS011;28407;51.830;5.684;2023-04-25T00:50:23;3.50;;;2.90;;
42754;SDS011;28407;51.830;5.684;2023-04-25T00:52:24;5.95;;;2.70;;
42754;SDS011;28407;51.830;5.684;2023-04-25T00:54:25;2.78;;;2.55;;
42754;SDS011;28407;51.830;5.684;2023-04-25T00:56:26;4.80;;;2.80;;
42754;SDS011;28407;51.830;5.684;2023-04-25T00:58:26;3.28;;;2.97;;
42754;SDS011;28407;51.830;5.684;2023-04-25T01:00:27;3.47;;;2.67;;
42754;SDS011;28407;51.830;5.684;2023-04-25T01:02:28;4.55;;;3.15;;
42754;SDS011;28407;51.830;5.684;2023-04-25T01:04:30;4.30;;;2.92;;
42754;SDS011;28407;51.830;5.684;2023-04-25T01:06:31;4.43;;;2.90;;
42754;SDS011;28407;51.830;5.684;2023-04-25T01:08:32;3.97;;;3.13;;
42754;SDS011;28407;51.830;5.684;2023-04-25T01:10:32;5.05;;;3.33;;
42754;SDS011;28407;51.830;5.684;2023-04-25T01:12:33;4.10;;;2.95;;
42754;SDS011;28407;51.830;5.684;2023-04-25T01:14:34;4.72;;;3.10;;
42754;SDS011;28407;51.830;5.684;2023-04-25T01:16:35;2.75;;;2.47;;
42754;SDS011;28407;51.830;5.684;2023-04-25T01:18:38;4.75;;;3.22;;
42754;SDS011;28407;51.830;5.684;2023-04-25T01:20:40;3.00;;;2.70;;
42754;SDS011;28407;51.830;5.684;2023-04-25T01:22:42;4.40;;;3.00;;
42754;SDS011;28407;51.830;5.684;2023-04-25T01:24:43;3.25;;;2.90;;
42754;SDS011;28407;51.830;5.684;2023-04-25T01:26:45;4.82;;;2.88;;
42754;SDS011;28407;51.830;5.684;2023-04-25T01:28:51;6.10;;;3.63;;
42754;SDS011;28407;51.830;5.684;2023-04-25T01:30:52;5.25;;;3.08;;
42754;SDS011;28407;51.830;5.684;2023-04-25T01:32:54;3.67;;;3.35;;
42754;SDS011;28407;51.830;5.684;2023-04-25T01:34:56;4.57;;;2.70;;
42754;SDS011;28407;51.830;5.684;2023-04-25T01:36:57;4.90;;;2.88;;
42754;SDS011;28407;51.830;5.684;2023-04-25T01:39:00;5.30;;;3.30;;
42754;SDS011;28407;51.830;5.684;2023-04-25T01:41:01;3.38;;;2.83;;
42754;SDS011;28407;51.830;5.684;2023-04-25T01:43:02;6.07;;;3.67;;
42754;SDS011;28407;51.830;5.684;2023-04-25T01:45:03;5.20;;;3.20;;
42754;SDS011;28407;51.830;5.684;2023-04-25T01:47:07;4.50;;;3.20;;
42754;SDS011;28407;51.830;5.684;2023-04-25T01:49:07;3.92;;;2.90;;
42754;SDS011;28407;51.830;5.684;2023-04-25T01:51:08;4.10;;;3.00;;
42754;SDS011;28407;51.830;5.684;2023-04-25T01:53:12;7.95;;;4.25;;
42754;SDS011;28407;51.830;5.684;2023-04-25T01:55:13;5.55;;;3.00;;
42754;SDS011;28407;51.830;5.684;2023-04-25T01:57:23;4.45;;;3.00;;
42754;SDS011;28407;51.830;5.684;2023-04-25T01:59:24;4.85;;;3.53;;
42754;SDS011;28407;51.830;5.684;2023-04-25T02:01:50;4.15;;;3.05;;
42754;SDS011;28407;51.830;5.684;2023-04-25T02:03:58;4.35;;;3.03;;
42754;SDS011;28407;51.830;5.684;2023-04-25T02:06:07;5.85;;;3.30;;
42754;SDS011;28407;51.830;5.684;2023-04-25T02:08:11;5.82;;;3.75;;
42754;SDS011;28407;51.830;5.684;2023-04-25T02:10:12;4.15;;;3.08;;
42754;SDS011;28407;51.830;5.684;2023-04-25T02:12:24;5.18;;;3.22;;
42754;SDS011;28407;51.830;5.684;2023-04-25T02:14:45;7.85;;;4.28;;
42754;SDS011;28407;51.830;5.684;2023-04-25T02:17:00;5.47;;;3.33;;
42754;SDS011;28407;51.830;5.684;2023-04-25T02:19:00;4.53;;;2.97;;
42754;SDS011;28407;51.830;5.684;2023-04-25T02:21:01;6.40;;;3.55;;
42754;SDS011;28407;51.830;5.684;2023-04-25T02:23:03;7.50;;;3.63;;
42754;SDS011;28407;51.830;5.684;2023-04-25T02:25:04;5.38;;;4.15;;
42754;SDS011;28407;51.830;5.684;2023-04-25T02:27:05;8.32;;;4.30;;
42754;SDS011;28407;51.830;5.684;2023-04-25T02:29:06;5.18;;;3.55;;
42754;SDS011;28407;51.830;5.684;2023-04-25T02:31:07;4.55;;;3.53;;
42754;SDS011;28407;51.830;5.684;2023-04-25T02:33:07;6.97;;;4.28;;
42754;SDS011;28407;51.830;5.684;2023-04-25T02:37:10;4.15;;;3.30;;
42754;SDS011;28407;51.830;5.684;2023-04-25T02:39:11;5.00;;;3.35;;
42754;SDS011;28407;51.830;5.684;2023-04-25T02:41:11;6.63;;;3.20;;
42754;SDS011;28407;51.830;5.684;2023-04-25T02:43:12;5.43;;;3.40;;
42754;SDS011;28407;51.830;5.684;2023-04-25T02:45:13;4.03;;;3.20;;
42754;SDS011;28407;51.830;5.684;2023-04-25T02:47:13;3.88;;;3.05;;
42754;SDS011;28407;51.830;5.684;2023-04-25T02:49:14;4.30;;;3.30;;
42754;SDS011;28407;51.830;5.684;2023-04-25T02:51:14;5.95;;;3.50;;
42754;SDS011;28407;51.830;5.684;2023-04-25T02:53:16;4.95;;;3.25;;
42754;SDS011;28407;51.830;5.684;2023-04-25T02:55:22;7.85;;;3.85;;
42754;SDS011;28407;51.830;5.684;2023-04-25T02:57:22;5.07;;;3.45;;
42754;SDS011;28407;51.830;5.684;2023-04-25T02:59:23;4.05;;;3.42;;
42754;SDS011;28407;51.830;5.684;2023-04-25T03:01:24;5.10;;;3.90;;
42754;SDS011;28407;51.830;5.684;2023-04-25T03:03:24;6.90;;;3.58;;
42754;SDS011;28407;51.830;5.684;2023-04-25T03:05:25;6.30;;;3.70;;
42754;SDS011;28407;51.830;5.684;2023-04-25T03:07:26;3.78;;;3.20;;
42754;SDS011;28407;51.830;5.684;2023-04-25T03:09:27;4.25;;;3.38;;
42754;SDS011;28407;51.830;5.684;2023-04-25T03:11:27;4.03;;;3.40;;
42754;SDS011;28407;51.830;5.684;2023-04-25T03:13:28;4.72;;;3.25;;
42754;SDS011;28407;51.830;5.684;2023-04-25T03:17:31;3.53;;;3.22;;
42754;SDS011;28407;51.830;5.684;2023-04-25T03:19:32;3.80;;;3.30;;
42754;SDS011;28407;51.830;5.684;2023-04-25T03:21:34;4.40;;;2.70;;
42754;SDS011;28407;51.830;5.684;2023-04-25T03:23:35;5.10;;;3.08;;
42754;SDS011;28407;51.830;5.684;2023-04-25T03:25:36;4.25;;;3.25;;
42754;SDS011;28407;51.830;5.684;2023-04-25T03:27:38;5.90;;;3.53;;
42754;SDS011;28407;51.830;5.684;2023-04-25T03:29:39;7.15;;;3.67;;
42754;SDS011;28407;51.830;5.684;2023-04-25T03:31:40;5.07;;;3.45;;
42754;SDS011;28407;51.830;5.684;2023-04-25T03:33:41;3.30;;;2.90;;
42754;SDS011;28407;51.830;5.684;2023-04-25T03:35:42;4.47;;;3.08;;
42754;SDS011;28407;51.830;5.684;2023-04-25T03:37:42;3.75;;;3.30;;
42754;SDS011;28407;51.830;5.684;2023-04-25T03:39:50;4.35;;;2.78;;
42754;SDS011;28407;51.830;5.684;2023-04-25T03:41:51;4.68;;;3.55;;
42754;SDS011;28407;51.830;5.684;2023-04-25T03:43:53;3.80;;;3.30;;
42754;SDS011;28407;51.830;5.684;2023-04-25T03:45:54;3.28;;;2.95;;
42754;SDS011;28407;51.830;5.684;2023-04-25T03:49:57;6.15;;;4.03;;
42754;SDS011;28407;51.830;5.684;2023-04-25T03:51:58;4.57;;;3.30;;
42754;SDS011;28407;51.830;5.684;2023-04-25T03:53:59;7.32;;;4.05;;
42754;SDS011;28407;51.830;5.684;2023-04-25T03:56:25;5.03;;;4.13;;
42754;SDS011;28407;51.830;5.684;2023-04-25T03:58:33;7.18;;;4.95;;
42754;SDS011;28407;51.830;5.684;2023-04-25T04:00:34;4.80;;;3.33;;
42754;SDS011;28407;51.830;5.684;2023-04-25T04:02:35;8.93;;;4.35;;
42754;SDS011;28407;51.830;5.684;2023-04-25T04:04:37;5.15;;;4.03;;
42754;SDS011;28407;51.830;5.684;2023-04-25T04:06:38;5.50;;;3.60;;
42754;SDS011;28407;51.830;5.684;2023-04-25T04:08:45;5.95;;;4.20;;
42754;SDS011;28407;51.830;5.684;2023-04-25T04:10:46;5.10;;;4.18;;
42754;SDS011;28407;51.830;5.684;2023-04-25T04:12:47;4.38;;;3.60;;
42754;SDS011;28407;51.830;5.684;2023-04-25T04:14:48;6.13;;;4.10;;
42754;SDS011;28407;51.830;5.684;2023-04-25T04:16:48;4.32;;;3.40;;
42754;SDS011;28407;51.830;5.684;2023-04-25T04:18:50;5.05;;;3.72;;
42754;SDS011;28407;51.830;5.684;2023-04-25T04:20:51;4.82;;;4.20;;
42754;SDS011;28407;51.830;5.684;2023-04-25T04:22:51;5.55;;;3.72;;
42754;SDS011;28407;51.830;5.684;2023-04-25T04:24:53;12.23;;;4.88;;
42754;SDS011;28407;51.830;5.684;2023-04-25T04:27:04;7.18;;;3.97;;
42754;SDS011;28407;51.830;5.684;2023-04-25T04:29:19;6.53;;;4.43;;
42754;SDS011;28407;51.830;5.684;2023-04-25T04:31:31;7.05;;;4.20;;
42754;SDS011;28407;51.830;5.684;2023-04-25T04:33:33;5.82;;;3.90;;
42754;SDS011;28407;51.830;5.684;2023-04-25T04:35:37;5.95;;;3.78;;
42754;SDS011;28407;51.830;5.684;2023-04-25T04:37:37;8.50;;;4.60;;
42754;SDS011;28407;51.830;5.684;2023-04-25T04:39:39;4.15;;;3.42;;
42754;SDS011;28407;51.830;5.684;2023-04-25T04:41:48;7.07;;;4.18;;
42754;SDS011;28407;51.830;5.684;2023-04-25T04:44:08;5.35;;;3.78;;
42754;SDS011;28407;51.830;5.684;2023-04-25T04:46:29;7.18;;;3.95;;
42754;SDS011;28407;51.830;5.684;2023-04-25T04:48:51;9.48;;;4.72;;
42754;SDS011;28407;51.830;5.684;2023-04-25T04:51:11;5.38;;;4.72;;
42754;SDS011;28407;51.830;5.684;2023-04-25T04:53:25;7.93;;;4.40;;
42754;SDS011;28407;51.830;5.684;2023-04-25T04:55:43;5.82;;;3.58;;
42754;SDS011;28407;51.830;5.684;2023-04-25T04:58:09;4.63;;;3.38;;
42754;SDS011;28407;51.830;5.684;2023-04-25T05:00:19;5.65;;;3.60;;
42754;SDS011;28407;51.830;5.684;2023-04-25T05:02:44;6.88;;;4.47;;
42754;SDS011;28407;51.830;5.684;2023-04-25T05:05:02;6.25;;;3.80;;
42754;SDS011;28407;51.830;5.684;2023-04-25T05:07:24;7.38;;;3.60;;
42754;SDS011;28407;51.830;5.684;2023-04-25T05:09:39;6.53;;;4.35;;
42754;SDS011;28407;51.830;5.684;2023-04-25T05:11:53;6.28;;;3.55;;
42754;SDS011;28407;51.830;5.684;2023-04-25T05:14:08;4.40;;;3.22;;
42754;SDS011;28407;51.830;5.684;2023-04-25T05:16:19;4.30;;;3.47;;
42754;SDS011;28407;51.830;5.684;2023-04-25T05:18:29;7.40;;;4.32;;
42754;SDS011;28407;51.830;5.684;2023-04-25T05:20:48;4.65;;;3.35;;
42754;SDS011;28407;51.830;5.684;2023-04-25T05:23:07;6.53;;;4.20;;
42754;SDS011;28407;51.830;5.684;2023-04-25T05:25:21;5.18;;;3.45;;
42754;SDS011;28407;51.830;5.684;2023-04-25T05:27:33;5.47;;;3.67;;
42754;SDS011;28407;51.830;5.684;2023-04-25T05:30:09;10.00;;;4.63;;
42754;SDS011;28407;51.830;5.684;2023-04-25T05:32:21;4.90;;;3.47;;
42754;SDS011;28407;51.830;5.684;2023-04-25T05:34:23;4.43;;;3.55;;
42754;SDS011;28407;51.830;5.684;2023-04-25T05:36:29;6.97;;;3.70;;
42754;SDS011;28407;51.830;5.684;2023-04-25T05:38:30;5.03;;;2.63;;
42754;SDS011;28407;51.830;5.684;2023-04-25T05:40:50;3.72;;;2.97;;
42754;SDS011;28407;51.830;5.684;2023-04-25T05:43:07;4.32;;;3.13;;
42754;SDS011;28407;51.830;5.684;2023-04-25T05:45:26;6.40;;;2.90;;
42754;SDS011;28407;51.830;5.684;2023-04-25T05:47:26;3.90;;;3.33;;
42754;SDS011;28407;51.830;5.684;2023-04-25T05:49:53;3.88;;;2.88;;
42754;SDS011;28407;51.830;5.684;2023-04-25T05:52:03;4.28;;;2.85;;
42754;SDS011;28407;51.830;5.684;2023-04-25T05:54:16;3.17;;;2.60;;
42754;SDS011;28407;51.830;5.684;2023-04-25T05:56:17;3.17;;;2.67;;
42754;SDS011;28407;51.830;5.684;2023-04-25T05:58:20;5.38;;;3.10;;
42754;SDS011;28407;51.830;5.684;2023-04-25T06:00:21;10.63;;;4.57;;
42754;SDS011;28407;51.830;5.684;2023-04-25T06:02:23;3.05;;;2.75;;
42754;SDS011;28407;51.830;5.684;2023-04-25T06:04:24;5.03;;;3.05;;
42754;SDS011;28407;51.830;5.684;2023-04-25T06:06:25;3.88;;;2.60;;
42754;SDS011;28407;51.830;5.684;2023-04-25T06:10:28;3.92;;;2.30;;
42754;SDS011;28407;51.830;5.684;2023-04-25T06:12:28;3.83;;;2.45;;
42754;SDS011;28407;51.830;5.684;2023-04-25T06:14:29;2.50;;;2.30;;
42754;SDS011;28407;51.830;5.684;2023-04-25T06:16:30;5.75;;;3.58;;
42754;SDS011;28407;51.830;5.684;2023-04-25T06:18:31;5.80;;;2.80;;
42754;SDS011;28407;51.830;5.684;2023-04-25T06:20:31;3.50;;;2.50;;
42754;SDS011;28407;51.830;5.684;2023-04-25T06:22:34;3.50;;;2.30;;
42754;SDS011;28407;51.830;5.684;2023-04-25T06:24:34;2.97;;;2.30;;
42754;SDS011;28407;51.830;5.684;2023-04-25T06:26:37;2.90;;;2.60;;
42754;SDS011;28407;51.830;5.684;2023-04-25T06:28:38;4.18;;;2.60;;
42754;SDS011;28407;51.830;5.684;2023-04-25T06:30:39;4.80;;;2.50;;
42754;SDS011;28407;51.830;5.684;2023-04-25T06:32:44;3.67;;;2.53;;
42754;SDS011;28407;51.830;5.684;2023-04-25T06:34:45;4.43;;;2.53;;
42754;SDS011;28407;51.830;5.684;2023-04-25T06:36:46;4.38;;;2.42;;
42754;SDS011;28407;51.830;5.684;2023-04-25T06:38:49;3.45;;;2.33;;
42754;SDS011;28407;51.830;5.684;2023-04-25T06:40:49;3.78;;;2.30;;
42754;SDS011;28407;51.830;5.684;2023-04-25T06:42:52;6.28;;;2.63;;
42754;SDS011;28407;51.830;5.684;2023-04-25T06:45:24;3.63;;;2.50;;
42754;SDS011;28407;51.830;5.684;2023-04-25T06:47:26;3.83;;;2.40;;
42754;SDS011;28407;51.830;5.684;2023-04-25T06:49:27;4.68;;;3.35;;
42754;SDS011;28407;51.830;5.684;2023-04-25T06:51:28;3.08;;;2.40;;
42754;SDS011;28407;51.830;5.684;2023-04-25T06:53:30;3.00;;;2.33;;
42754;SDS011;28407;51.830;5.684;2023-04-25T06:55:34;5.35;;;2.83;;
42754;SDS011;28407;51.830;5.684;2023-04-25T06:57:45;4.72;;;2.67;;
42754;SDS011;28407;51.830;5.684;2023-04-25T07:00:08;3.33;;;2.33;;
42754;SDS011;28407;51.830;5.684;2023-04-25T07:02:11;2.65;;;2.45;;
42754;SDS011;28407;51.830;5.684;2023-04-25T07:04:12;4.88;;;2.35;;
42754;SDS011;28407;51.830;5.684;2023-04-25T07:06:18;6.75;;;2.33;;
42754;SDS011;28407;51.830;5.684;2023-04-25T07:08:19;4.38;;;2.40;;
42754;SDS011;28407;51.830;5.684;2023-04-25T07:10:21;3.20;;;2.63;;
42754;SDS011;28407;51.830;5.684;2023-04-25T07:12:22;4.90;;;3.28;;
42754;SDS011;28407;51.830;5.684;2023-04-25T07:14:23;4.32;;;2.42;;
42754;SDS011;28407;51.830;5.684;2023-04-25T07:16:24;4.05;;;2.35;;
42754;SDS011;28407;51.830;5.684;2023-04-25T07:18:25;4.87;;;2.83;;
42754;SDS011;28407;51.830;5.684;2023-04-25T07:20:26;3.38;;;2.15;;
42754;SDS011;28407;51.830;5.684;2023-04-25T07:22:27;3.03;;;2.03;;
42754;SDS011;28407;51.830;5.684;2023-04-25T07:24:28;2.72;;;2.20;;
42754;SDS011;28407;51.830;5.684;2023-04-25T07:28:49;2.78;;;2.05;;
42754;SDS011;28407;51.830;5.684;2023-04-25T07:32:51;5.22;;;2.60;;
42754;SDS011;28407;51.830;5.684;2023-04-25T07:34:52;3.63;;;2.10;;
42754;SDS011;28407;51.830;5.684;2023-04-25T07:36:52;2.40;;;2.20;;
42754;SDS011;28407;51.830;5.684;2023-04-25T07:38:54;2.72;;;1.83;;
42754;SDS011;28407;51.830;5.684;2023-04-25T07:40:55;3.78;;;2.20;;
42754;SDS011;28407;51.830;5.684;2023-04-25T07:42:55;2.72;;;2.10;;
42754;SDS011;28407;51.830;5.684;2023-04-25T07:45:16;4.75;;;2.17;;
42754;SDS011;28407;51.830;5.684;2023-04-25T07:47:17;5.15;;;2.35;;
42754;SDS011;28407;51.830;5.684;2023-04-25T07:49:21;2.90;;;2.30;;
42754;SDS011;28407;51.830;5.684;2023-04-25T07:51:23;3.60;;;2.50;;
42754;SDS011;28407;51.830;5.684;2023-04-25T07:55:30;3.05;;;2.10;;
42754;SDS011;28407;51.830;5.684;2023-04-25T07:57:42;6.53;;;2.08;;
42754;SDS011;28407;51.830;5.684;2023-04-25T07:59:42;3.88;;;2.20;;
42754;SDS011;28407;51.830;5.684;2023-04-25T08:01:43;2.45;;;1.92;;
42754;SDS011;28407;51.830;5.684;2023-04-25T08:03:45;5.43;;;2.13;;
42754;SDS011;28407;51.830;5.684;2023-04-25T08:05:53;3.25;;;2.20;;
42754;SDS011;28407;51.830;5.684;2023-04-25T08:07:54;3.20;;;2.13;;
42754;SDS011;28407;51.830;5.684;2023-04-25T08:09:55;3.53;;;2.83;;
42754;SDS011;28407;51.830;5.684;2023-04-25T08:12:00;3.63;;;2.45;;
42754;SDS011;28407;51.830;5.684;2023-04-25T08:14:05;3.78;;;2.30;;
42754;SDS011;28407;51.830;5.684;2023-04-25T08:16:06;4.60;;;2.30;;
42754;SDS011;28407;51.830;5.684;2023-04-25T08:18:08;2.70;;;2.40;;
42754;SDS011;28407;51.830;5.684;2023-04-25T08:20:09;3.33;;;2.15;;
42754;SDS011;28407;51.830;5.684;2023-04-25T08:22:10;3.40;;;2.15;;
42754;SDS011;28407;51.830;5.684;2023-04-25T08:24:22;3.88;;;2.10;;
42754;SDS011;28407;51.830;5.684;2023-04-25T08:26:26;3.37;;;2.00;;
42754;SDS011;28407;51.830;5.684;2023-04-25T08:28:28;3.63;;;2.17;;
42754;SDS011;28407;51.830;5.684;2023-04-25T08:30:31;3.45;;;2.63;;
42754;SDS011;28407;51.830;5.684;2023-04-25T08:32:32;3.83;;;2.00;;
42754;SDS011;28407;51.830;5.684;2023-04-25T08:35:09;3.05;;;2.08;;
42754;SDS011;28407;51.830;5.684;2023-04-25T08:37:09;3.60;;;1.90;;
42754;SDS011;28407;51.830;5.684;2023-04-25T08:39:27;2.13;;;2.00;;
42754;SDS011;28407;51.830;5.684;2023-04-25T08:41:56;8.23;;;3.17;;
42754;SDS011;28407;51.830;5.684;2023-04-25T08:43:57;5.28;;;2.58;;
42754;SDS011;28407;51.830;5.684;2023-04-25T08:46:00;2.13;;;1.83;;
42754;SDS011;28407;51.830;5.684;2023-04-25T08:48:12;3.63;;;2.13;;
42754;SDS011;28407;51.830;5.684;2023-04-25T08:50:17;5.88;;;2.35;;
42754;SDS011;28407;51.830;5.684;2023-04-25T08:52:21;1.90;;;1.80;;
42754;SDS011;28407;51.830;5.684;2023-04-25T08:54:23;3.35;;;2.42;;
42754;SDS011;28407;51.830;5.684;2023-04-25T08:56:27;2.58;;;1.90;;
42754;SDS011;28407;51.830;5.684;2023-04-25T08:58:28;2.95;;;2.63;;
42754;SDS011;28407;51.830;5.684;2023-04-25T09:00:29;3.85;;;2.97;;
42754;SDS011;28407;51.830;5.684;2023-04-25T09:02:30;2.83;;;1.90;;
42754;SDS011;28407;51.830;5.684;2023-04-25T09:04:31;2.40;;;2.20;;
42754;SDS011;28407;51.830;5.684;2023-04-25T09:06:32;3.00;;;1.88;;
42754;SDS011;28407;51.830;5.684;2023-04-25T09:08:36;1.90;;;1.80;;
42754;SDS011;28407;51.830;5.684;2023-04-25T09:10:37;2.83;;;2.13;;
42754;SDS011;28407;51.830;5.684;2023-04-25T09:14:42;2.70;;;1.83;;
42754;SDS011;28407;51.830;5.684;2023-04-25T09:19:26;2.97;;;1.80;;
42754;SDS011;28407;51.830;5.684;2023-04-25T09:21:27;2.30;;;1.70;;
42754;SDS011;28407;51.830;5.684;2023-04-25T09:23:30;3.28;;;1.85;;
42754;SDS011;28407;51.830;5.684;2023-04-25T09:25:44;1.88;;;1.70;;
42754;SDS011;28407;51.830;5.684;2023-04-25T09:27:52;2.00;;;1.90;;
42754;SDS011;28407;51.830;5.684;2023-04-25T09:30:03;3.33;;;1.88;;
42754;SDS011;28407;51.830;5.684;2023-04-25T09:32:33;3.92;;;2.00;;
42754;SDS011;28407;51.830;5.684;2023-04-25T09:34:41;2.63;;;2.05;;
42754;SDS011;28407;51.830;5.684;2023-04-25T09:36:54;3.53;;;2.15;;
42754;SDS011;28407;51.830;5.684;2023-04-25T09:39:13;1.95;;;1.80;;
42754;SDS011;28407;51.830;5.684;2023-04-25T09:41:23;2.17;;;1.92;;
42754;SDS011;28407;51.830;5.684;2023-04-25T09:43:25;2.35;;;1.70;;
42754;SDS011;28407;51.830;5.684;2023-04-25T09:45:26;3.78;;;1.90;;
42754;SDS011;28407;51.830;5.684;2023-04-25T09:47:30;5.40;;;2.83;;
42754;SDS011;28407;51.830;5.684;2023-04-25T09:49:32;2.55;;;2.00;;
42754;SDS011;28407;51.830;5.684;2023-04-25T09:51:37;3.05;;;1.80;;
42754;SDS011;28407;51.830;5.684;2023-04-25T09:53:41;3.28;;;1.90;;
42754;SDS011;28407;51.830;5.684;2023-04-25T09:55:59;3.72;;;1.77;;
42754;SDS011;28407;51.830;5.684;2023-04-25T09:58:03;2.72;;;1.70;;
42754;SDS011;28407;51.830;5.684;2023-04-25T10:00:08;2.38;;;1.70;;
42754;SDS011;28407;51.830;5.684;2023-04-25T10:02:16;2.63;;;1.92;;
42754;SDS011;28407;51.830;5.684;2023-04-25T10:04:24;1.60;;;1.50;;
42754;SDS011;28407;51.830;5.684;2023-04-25T10:06:40;1.92;;;1.80;;
42754;SDS011;28407;51.830;5.684;2023-04-25T10:08:43;1.70;;;1.60;;
42754;SDS011;28407;51.830;5.684;2023-04-25T10:12:46;2.95;;;1.80;;
42754;SDS011;28407;51.830;5.684;2023-04-25T10:14:47;4.18;;;2.17;;
42754;SDS011;28407;51.830;5.684;2023-04-25T10:16:48;2.83;;;1.85;;
42754;SDS011;28407;51.830;5.684;2023-04-25T10:18:49;2.63;;;1.73;;
42754;SDS011;28407;51.830;5.684;2023-04-25T10:20:50;1.85;;;1.70;;
42754;SDS011;28407;51.830;5.684;2023-04-25T10:22:51;2.00;;;1.70;;
42754;SDS011;28407;51.830;5.684;2023-04-25T10:24:56;2.13;;;1.98;;
42754;SDS011;28407;51.830;5.684;2023-04-25T10:26:57;1.87;;;1.77;;
42754;SDS011;28407;51.830;5.684;2023-04-25T10:29:00;1.75;;;1.65;;
42754;SDS011;28407;51.830;5.684;2023-04-25T10:31:06;3.47;;;1.75;;
42754;SDS011;28407;51.830;5.684;2023-04-25T10:33:17;2.05;;;1.67;;
42754;SDS011;28407;51.830;5.684;2023-04-25T10:35:19;3.22;;;1.70;;
42754;SDS011;28407;51.830;5.684;2023-04-25T10:37:25;1.90;;;1.60;;
42754;SDS011;28407;51.830;5.684;2023-04-25T10:39:26;1.92;;;1.52;;
42754;SDS011;28407;51.830;5.684;2023-04-25T10:41:27;1.95;;;1.77;;
42754;SDS011;28407;51.830;5.684;2023-04-25T10:43:36;1.77;;;1.45;;
42754;SDS011;28407;51.830;5.684;2023-04-25T10:45:53;2.17;;;1.50;;
42754;SDS011;28407;51.830;5.684;2023-04-25T10:47:54;3.97;;;1.65;;
42754;SDS011;28407;51.830;5.684;2023-04-25T10:49:54;1.60;;;1.50;;
42754;SDS011;28407;51.830;5.684;2023-04-25T10:52:11;1.50;;;1.40;;
42754;SDS011;28407;51.830;5.684;2023-04-25T10:54:17;2.00;;;1.67;;
42754;SDS011;28407;51.830;5.684;2023-04-25T10:56:19;3.55;;;2.58;;
42754;SDS011;28407;51.830;5.684;2023-04-25T10:58:22;2.13;;;1.92;;
42754;SDS011;28407;51.830;5.684;2023-04-25T11:00:22;2.10;;;1.48;;
42754;SDS011;28407;51.830;5.684;2023-04-25T11:02:26;2.08;;;1.40;;
42754;SDS011;28407;51.830;5.684;2023-04-25T11:04:32;3.10;;;1.50;;
42754;SDS011;28407;51.830;5.684;2023-04-25T11:09:01;2.42;;;1.60;;
42754;SDS011;28407;51.830;5.684;2023-04-25T11:11:02;2.30;;;1.60;;
42754;SDS011;28407;51.830;5.684;2023-04-25T11:13:03;2.47;;;1.50;;
42754;SDS011;28407;51.830;5.684;2023-04-25T11:15:05;2.20;;;1.58;;
42754;SDS011;28407;51.830;5.684;2023-04-25T11:17:07;3.08;;;1.65;;
42754;SDS011;28407;51.830;5.684;2023-04-25T11:19:08;2.47;;;1.70;;
42754;SDS011;28407;51.830;5.684;2023-04-25T11:21:09;1.98;;;1.52;;
42754;SDS011;28407;51.830;5.684;2023-04-25T11:23:11;2.70;;;1.70;;
42754;SDS011;28407;51.830;5.684;2023-04-25T11:25:12;2.63;;;1.48;;
42754;SDS011;28407;51.830;5.684;2023-04-25T11:27:14;2.55;;;1.60;;
42754;SDS011;28407;51.830;5.684;2023-04-25T11:29:14;2.53;;;1.40;;
42754;SDS011;28407;51.830;5.684;2023-04-25T11:31:15;1.80;;;1.40;;
42754;SDS011;28407;51.830;5.684;2023-04-25T11:33:16;3.75;;;1.60;;
42754;SDS011;28407;51.830;5.684;2023-04-25T11:35:17;1.83;;;1.40;;
42754;SDS011;28407;51.830;5.684;2023-04-25T11:37:19;4.28;;;1.60;;
42754;SDS011;28407;51.830;5.684;2023-04-25T11:39:20;3.55;;;1.50;;
42754;SDS011;28407;51.830;5.684;2023-04-25T11:41:21;2.57;;;1.50;;
42754;SDS011;28407;51.830;5.684;2023-04-25T11:43:22;2.25;;;1.40;;
42754;SDS011;28407;51.830;5.684;2023-04-25T11:45:23;2.60;;;1.58;;
42754;SDS011;28407;51.830;5.684;2023-04-25T11:47:30;1.52;;;1.40;;
42754;SDS011;28407;51.830;5.684;2023-04-25T11:49:31;2.38;;;1.60;;
42754;SDS011;28407;51.830;5.684;2023-04-25T11:51:41;4.32;;;1.48;;
42754;SDS011;28407;51.830;5.684;2023-04-25T11:53:46;2.70;;;1.58;;
42754;SDS011;28407;51.830;5.684;2023-04-25T11:55:46;3.60;;;1.73;;
42754;SDS011;28407;51.830;5.684;2023-04-25T11:57:48;1.92;;;1.45;;
42754;SDS011;28407;51.830;5.684;2023-04-25T11:59:52;3.50;;;1.65;;
42754;SDS011;28407;51.830;5.684;2023-04-25T12:01:53;2.00;;;1.50;;
42754;SDS011;28407;51.830;5.684;2023-04-25T12:03:54;2.45;;;1.42;;
42754;SDS011;28407;51.830;5.684;2023-04-25T12:05:54;2.38;;;1.50;;
42754;SDS011;28407;51.830;5.684;2023-04-25T12:08:09;2.20;;;1.40;;
42754;SDS011;28407;51.830;5.684;2023-04-25T12:10:14;3.83;;;2.05;;
42754;SDS011;28407;51.830;5.684;2023-04-25T12:14:20;1.50;;;1.40;;
42754;SDS011;28407;51.830;5.684;2023-04-25T12:16:24;1.60;;;1.23;;
42754;SDS011;28407;51.830;5.684;2023-04-25T12:18:24;1.45;;;1.30;;
42754;SDS011;28407;51.830;5.684;2023-04-25T12:20:28;2.17;;;1.98;;
42754;SDS011;28407;51.830;5.684;2023-04-25T12:22:31;2.00;;;1.30;;
42754;SDS011;28407;51.830;5.684;2023-04-25T12:24:33;2.43;;;1.50;;
42754;SDS011;28407;51.830;5.684;2023-04-25T12:29:00;1.60;;;1.10;;
42754;SDS011;28407;51.830;5.684;2023-04-25T12:31:04;2.45;;;1.40;;
42754;SDS011;28407;51.830;5.684;2023-04-25T12:33:06;2.35;;;1.20;;
42754;SDS011;28407;51.830;5.684;2023-04-25T12:35:06;1.40;;;1.30;;
42754;SDS011;28407;51.830;5.684;2023-04-25T12:37:07;2.70;;;1.45;;
42754;SDS011;28407;51.830;5.684;2023-04-25T12:39:08;2.50;;;1.58;;
42754;SDS011;28407;51.830;5.684;2023-04-25T12:41:15;1.48;;;1.10;;
42754;SDS011;28407;51.830;5.684;2023-04-25T12:43:16;2.55;;;1.33;;
42754;SDS011;28407;51.830;5.684;2023-04-25T12:45:17;2.43;;;1.50;;
42754;SDS011;28407;51.830;5.684;2023-04-25T12:47:17;2.78;;;1.30;;
42754;SDS011;28407;51.830;5.684;2023-04-25T12:49:18;2.38;;;1.40;;
42754;SDS011;28407;51.830;5.684;2023-04-25T12:51:19;2.53;;;1.30;;
42754;SDS011;28407;51.830;5.684;2023-04-25T12:53:20;2.05;;;1.35;;
42754;SDS011;28407;51.830;5.684;2023-04-25T12:55:22;1.65;;;1.50;;
42754;SDS011;28407;51.830;5.684;2023-04-25T12:57:22;2.70;;;1.20;;